ETIK

Illesheim Air Base Heliport

Storck Barracks, Germany
TAF ETIK 251306Z 2513/2619 05009KT 9999 SCT030 QNH3060INS BECMG 2518/2519 VRB06KT 9999 SKC QNH3056INS BECMG 2608/2609 18009KT 9999 SKC QNH3041INS TX15/2613Z TN01/2603Z
Issued Valid From Valid To
Sep-25 @ 13:06 UTC
(4 hours ago)
Sep-25 @ 13:00 UTC
(4 hours ago)
Sep-26 @ 19:00 UTC
(-1 days ago)
Sep-25 @ 13:00 to Sep-25 @ 18:00
TAF ETIK 251306Z 2513/2619 05009KT 9999 SCT030 QNH3060INS
Wind Visibility Clouds Readings
50° at 9 knots 10,000+ meters
  • Scattered at 3,000' AGL
Altimeter 30.59" Hg
Pressure 1036 hPa
Becoming Sep-25 @ 18:00 to Sep-26 @ 08:00
BECMG 2518/2519 VRB06KT 9999 SKC QNH3056INS
Wind Visibility Clouds Readings
Variable at 6 knots 10,000+ meters
  • Clear skies
Altimeter 30.56" Hg
Pressure 1035 hPa
Becoming Sep-26 @ 08:00 to Sep-26 @ 19:00
BECMG 2608/2609 18009KT 9999 SKC QNH3041INS TX15/2613Z TN01/2603Z
Wind Visibility Clouds Readings
180° at 9 knots 10,000+ meters
  • Clear skies
Altimeter 30.41" Hg
Pressure 1030 hPa
TAF ETIK 251306Z 2513/2619 05009KT 9999 SCT030 QNH3060INS BECMG 2518/2519 VRB06KT 9999 SKC QNH3056INS BECMG 2608/2609 18009KT 9999 SKC QNH3041INS TX15/2613Z TN01/2603Z
Issued Sep-25 @ 13:06 UTC
(4 hours ago)
Valid From Sep-25 @ 13:00 UTC
(4 hours ago)
Valid To Sep-26 @ 19:00 UTC
(-1 days ago)
Sep-25 @ 13:00 - Sep-25 @ 18:00
Wind Visibility
50° at 9 knots 10,000+ meters
Clouds
  • Scattered at 3,000' AGL
Becoming Sep-25 @ 18:00 - Sep-26 @ 08:00
Wind Visibility
Variable at 6 knots 10,000+ meters
Clouds
  • Clear skies
Becoming Sep-26 @ 08:00 - Sep-26 @ 19:00
Wind Visibility
180° at 9 knots 10,000+ meters
Clouds
  • Clear skies